sensor_id;sensor_type;location;lat;lon;timestamp;P1;durP1;ratioP1;P2;durP2;ratioP2
43893;SDS011;29556;50.846;4.442;2022-08-19T00:02:03;21.13;;;10.32;;
43893;SDS011;29556;50.846;4.442;2022-08-19T00:04:34;28.23;;;13.60;;
43893;SDS011;29556;50.846;4.442;2022-08-19T00:07:01;22.92;;;12.52;;
43893;SDS011;29556;50.846;4.442;2022-08-19T00:09:29;25.40;;;14.18;;
43893;SDS011;29556;50.846;4.442;2022-08-19T00:11:56;26.98;;;14.73;;
43893;SDS011;29556;50.846;4.442;2022-08-19T00:14:37;28.45;;;14.13;;
43893;SDS011;29556;50.846;4.442;2022-08-19T00:17:08;26.38;;;14.13;;
43893;SDS011;29556;50.846;4.442;2022-08-19T00:19:34;26.85;;;14.70;;
43893;SDS011;29556;50.846;4.442;2022-08-19T00:22:01;27.88;;;16.35;;
43893;SDS011;29556;50.846;4.442;2022-08-19T00:24:31;30.48;;;15.98;;
43893;SDS011;29556;50.846;4.442;2022-08-19T00:26:57;31.85;;;16.67;;
43893;SDS011;29556;50.846;4.442;2022-08-19T00:29:24;39.80;;;18.02;;
43893;SDS011;29556;50.846;4.442;2022-08-19T00:31:51;40.67;;;19.52;;
43893;SDS011;29556;50.846;4.442;2022-08-19T00:36:58;49.60;;;22.75;;
43893;SDS011;29556;50.846;4.442;2022-08-19T00:39:24;54.58;;;24.65;;
43893;SDS011;29556;50.846;4.442;2022-08-19T00:41:51;48.90;;;22.92;;
43893;SDS011;29556;50.846;4.442;2022-08-19T00:44:18;55.97;;;25.00;;
43893;SDS011;29556;50.846;4.442;2022-08-19T00:47:05;46.17;;;21.80;;
43893;SDS011;29556;50.846;4.442;2022-08-19T00:49:37;51.15;;;24.33;;
43893;SDS011;29556;50.846;4.442;2022-08-19T00:52:12;57.00;;;26.25;;
43893;SDS011;29556;50.846;4.442;2022-08-19T00:54:41;61.08;;;26.58;;
43893;SDS011;29556;50.846;4.442;2022-08-19T00:57:09;64.82;;;29.60;;
43893;SDS011;29556;50.846;4.442;2022-08-19T00:59:41;61.10;;;27.77;;
43893;SDS011;29556;50.846;4.442;2022-08-19T01:02:10;57.45;;;27.08;;
43893;SDS011;29556;50.846;4.442;2022-08-19T01:04:47;59.20;;;25.77;;
43893;SDS011;29556;50.846;4.442;2022-08-19T01:07:17;61.00;;;29.23;;
43893;SDS011;29556;50.846;4.442;2022-08-19T01:09:43;64.15;;;28.85;;
43893;SDS011;29556;50.846;4.442;2022-08-19T01:12:09;60.42;;;27.02;;
43893;SDS011;29556;50.846;4.442;2022-08-19T01:14:36;56.15;;;26.00;;
43893;SDS011;29556;50.846;4.442;2022-08-19T01:17:07;62.85;;;27.17;;
43893;SDS011;29556;50.846;4.442;2022-08-19T01:19:40;58.60;;;25.80;;
43893;SDS011;29556;50.846;4.442;2022-08-19T01:22:13;50.25;;;23.75;;
43893;SDS011;29556;50.846;4.442;2022-08-19T01:24:49;51.63;;;24.23;;
43893;SDS011;29556;50.846;4.442;2022-08-19T01:27:17;54.35;;;25.52;;
43893;SDS011;29556;50.846;4.442;2022-08-19T01:29:45;50.05;;;25.38;;
43893;SDS011;29556;50.846;4.442;2022-08-19T01:32:20;47.05;;;22.85;;
43893;SDS011;29556;50.846;4.442;2022-08-19T01:34:48;54.72;;;23.70;;
43893;SDS011;29556;50.846;4.442;2022-08-19T01:37:22;49.40;;;22.73;;
43893;SDS011;29556;50.846;4.442;2022-08-19T01:39:49;41.08;;;19.33;;
43893;SDS011;29556;50.846;4.442;2022-08-19T01:42:15;38.85;;;19.27;;
43893;SDS011;29556;50.846;4.442;2022-08-19T01:44:41;37.88;;;18.50;;
43893;SDS011;29556;50.846;4.442;2022-08-19T01:47:17;37.40;;;19.05;;
43893;SDS011;29556;50.846;4.442;2022-08-19T01:49:44;37.65;;;20.88;;
43893;SDS011;29556;50.846;4.442;2022-08-19T01:52:24;38.35;;;18.77;;
43893;SDS011;29556;50.846;4.442;2022-08-19T01:54:52;34.08;;;17.50;;
43893;SDS011;29556;50.846;4.442;2022-08-19T01:57:19;32.92;;;17.35;;
43893;SDS011;29556;50.846;4.442;2022-08-19T01:59:45;30.23;;;16.02;;
43893;SDS011;29556;50.846;4.442;2022-08-19T02:02:43;33.38;;;15.93;;
43893;SDS011;29556;50.846;4.442;2022-08-19T02:05:11;29.13;;;15.32;;
43893;SDS011;29556;50.846;4.442;2022-08-19T02:07:38;33.17;;;14.35;;
43893;SDS011;29556;50.846;4.442;2022-08-19T02:10:08;22.67;;;12.57;;
43893;SDS011;29556;50.846;4.442;2022-08-19T02:12:49;32.25;;;13.85;;
43893;SDS011;29556;50.846;4.442;2022-08-19T02:15:15;25.50;;;12.70;;
43893;SDS011;29556;50.846;4.442;2022-08-19T02:17:44;23.75;;;12.82;;
43893;SDS011;29556;50.846;4.442;2022-08-19T02:20:10;31.98;;;15.25;;
43893;SDS011;29556;50.846;4.442;2022-08-19T02:22:45;29.92;;;15.68;;
43893;SDS011;29556;50.846;4.442;2022-08-19T02:25:16;27.40;;;13.65;;
43893;SDS011;29556;50.846;4.442;2022-08-19T02:27:42;27.80;;;14.45;;
43893;SDS011;29556;50.846;4.442;2022-08-19T02:30:14;25.13;;;12.30;;
43893;SDS011;29556;50.846;4.442;2022-08-19T02:32:41;27.23;;;12.10;;
43893;SDS011;29556;50.846;4.442;2022-08-19T02:35:08;21.60;;;11.65;;
43893;SDS011;29556;50.846;4.442;2022-08-19T02:40:22;22.17;;;12.93;;
43893;SDS011;29556;50.846;4.442;2022-08-19T02:42:48;24.58;;;12.25;;
43893;SDS011;29556;50.846;4.442;2022-08-19T02:45:15;21.65;;;12.23;;
43893;SDS011;29556;50.846;4.442;2022-08-19T02:47:49;31.70;;;16.98;;
43893;SDS011;29556;50.846;4.442;2022-08-19T02:50:20;27.83;;;14.98;;
43893;SDS011;29556;50.846;4.442;2022-08-19T02:55:34;25.52;;;14.32;;
43893;SDS011;29556;50.846;4.442;2022-08-19T02:58:00;23.52;;;12.55;;
43893;SDS011;29556;50.846;4.442;2022-08-19T03:00:29;24.83;;;12.73;;
43893;SDS011;29556;50.846;4.442;2022-08-19T03:02:55;24.67;;;13.88;;
43893;SDS011;29556;50.846;4.442;2022-08-19T03:05:21;28.23;;;14.10;;
43893;SDS011;29556;50.846;4.442;2022-08-19T03:07:46;27.98;;;13.00;;
43893;SDS011;29556;50.846;4.442;2022-08-19T03:10:12;23.98;;;12.57;;
43893;SDS011;29556;50.846;4.442;2022-08-19T03:12:38;25.20;;;13.45;;
43893;SDS011;29556;50.846;4.442;2022-08-19T03:15:05;24.58;;;12.10;;
43893;SDS011;29556;50.846;4.442;2022-08-19T03:17:32;21.83;;;11.82;;
43893;SDS011;29556;50.846;4.442;2022-08-19T03:19:59;22.13;;;11.32;;
43893;SDS011;29556;50.846;4.442;2022-08-19T03:22:25;20.90;;;10.68;;
43893;SDS011;29556;50.846;4.442;2022-08-19T03:24:52;24.10;;;11.43;;
43893;SDS011;29556;50.846;4.442;2022-08-19T03:27:19;22.10;;;10.93;;
43893;SDS011;29556;50.846;4.442;2022-08-19T03:29:45;22.45;;;10.77;;
43893;SDS011;29556;50.846;4.442;2022-08-19T03:32:12;27.63;;;11.98;;
43893;SDS011;29556;50.846;4.442;2022-08-19T03:34:38;27.15;;;12.55;;
43893;SDS011;29556;50.846;4.442;2022-08-19T03:37:07;27.20;;;13.25;;
43893;SDS011;29556;50.846;4.442;2022-08-19T03:39:37;24.45;;;12.23;;
43893;SDS011;29556;50.846;4.442;2022-08-19T03:42:04;25.55;;;12.23;;
43893;SDS011;29556;50.846;4.442;2022-08-19T03:44:31;21.45;;;11.27;;
43893;SDS011;29556;50.846;4.442;2022-08-19T03:47:00;27.25;;;11.85;;
43893;SDS011;29556;50.846;4.442;2022-08-19T03:49:28;20.70;;;10.90;;
43893;SDS011;29556;50.846;4.442;2022-08-19T03:52:03;26.23;;;11.63;;
43893;SDS011;29556;50.846;4.442;2022-08-19T03:54:44;23.10;;;10.97;;
43893;SDS011;29556;50.846;4.442;2022-08-19T03:57:32;22.75;;;11.45;;
43893;SDS011;29556;50.846;4.442;2022-08-19T04:00:20;24.42;;;11.32;;
43893;SDS011;29556;50.846;4.442;2022-08-19T04:02:47;24.75;;;11.63;;
43893;SDS011;29556;50.846;4.442;2022-08-19T04:05:34;30.02;;;11.02;;
43893;SDS011;29556;50.846;4.442;2022-08-19T04:08:05;26.95;;;12.57;;
43893;SDS011;29556;50.846;4.442;2022-08-19T04:10:40;27.85;;;12.95;;
43893;SDS011;29556;50.846;4.442;2022-08-19T04:15:40;26.85;;;14.05;;
43893;SDS011;29556;50.846;4.442;2022-08-19T04:18:10;26.30;;;12.47;;
43893;SDS011;29556;50.846;4.442;2022-08-19T04:20:40;26.38;;;12.43;;
43893;SDS011;29556;50.846;4.442;2022-08-19T04:23:35;26.45;;;12.60;;
43893;SDS011;29556;50.846;4.442;2022-08-19T04:28:36;36.55;;;12.85;;
43893;SDS011;29556;50.846;4.442;2022-08-19T04:31:22;26.77;;;11.00;;
43893;SDS011;29556;50.846;4.442;2022-08-19T04:34:12;27.45;;;12.35;;
43893;SDS011;29556;50.846;4.442;2022-08-19T04:37:06;28.02;;;10.48;;
43893;SDS011;29556;50.846;4.442;2022-08-19T04:39:42;26.83;;;11.15;;
43893;SDS011;29556;50.846;4.442;2022-08-19T04:42:28;24.15;;;10.85;;
43893;SDS011;29556;50.846;4.442;2022-08-19T04:45:08;22.65;;;9.60;;
43893;SDS011;29556;50.846;4.442;2022-08-19T04:47:36;20.70;;;10.30;;
43893;SDS011;29556;50.846;4.442;2022-08-19T04:50:06;19.85;;;10.63;;
43893;SDS011;29556;50.846;4.442;2022-08-19T04:52:34;20.08;;;9.57;;
43893;SDS011;29556;50.846;4.442;2022-08-19T04:54:59;22.17;;;10.43;;
43893;SDS011;29556;50.846;4.442;2022-08-19T04:57:26;20.90;;;10.63;;
43893;SDS011;29556;50.846;4.442;2022-08-19T04:59:56;24.58;;;10.48;;
43893;SDS011;29556;50.846;4.442;2022-08-19T05:02:22;20.02;;;8.85;;
43893;SDS011;29556;50.846;4.442;2022-08-19T05:04:49;22.65;;;9.13;;
43893;SDS011;29556;50.846;4.442;2022-08-19T05:07:16;16.95;;;7.85;;
43893;SDS011;29556;50.846;4.442;2022-08-19T05:09:42;17.80;;;9.65;;
43893;SDS011;29556;50.846;4.442;2022-08-19T05:12:09;18.73;;;8.90;;
43893;SDS011;29556;50.846;4.442;2022-08-19T05:14:35;18.05;;;8.35;;
43893;SDS011;29556;50.846;4.442;2022-08-19T05:17:01;19.25;;;8.45;;
43893;SDS011;29556;50.846;4.442;2022-08-19T05:19:27;21.98;;;9.18;;
43893;SDS011;29556;50.846;4.442;2022-08-19T05:22:11;22.98;;;8.77;;
43893;SDS011;29556;50.846;4.442;2022-08-19T05:24:55;29.45;;;9.55;;
43893;SDS011;29556;50.846;4.442;2022-08-19T05:27:21;22.35;;;10.32;;
43893;SDS011;29556;50.846;4.442;2022-08-19T05:29:47;21.33;;;10.20;;
43893;SDS011;29556;50.846;4.442;2022-08-19T05:32:12;18.63;;;10.18;;
43893;SDS011;29556;50.846;4.442;2022-08-19T05:34:39;22.85;;;10.93;;
43893;SDS011;29556;50.846;4.442;2022-08-19T05:40:10;23.70;;;10.88;;
43893;SDS011;29556;50.846;4.442;2022-08-19T05:42:40;30.95;;;11.95;;
43893;SDS011;29556;50.846;4.442;2022-08-19T05:45:13;21.30;;;11.02;;
43893;SDS011;29556;50.846;4.442;2022-08-19T05:50:14;26.08;;;11.57;;
43893;SDS011;29556;50.846;4.442;2022-08-19T05:52:44;25.67;;;11.73;;
43893;SDS011;29556;50.846;4.442;2022-08-19T05:55:13;25.85;;;10.48;;
43893;SDS011;29556;50.846;4.442;2022-08-19T05:57:45;22.65;;;11.45;;
43893;SDS011;29556;50.846;4.442;2022-08-19T06:00:13;23.65;;;10.20;;
43893;SDS011;29556;50.846;4.442;2022-08-19T06:02:41;21.77;;;9.60;;
43893;SDS011;29556;50.846;4.442;2022-08-19T06:05:10;21.73;;;10.70;;
43893;SDS011;29556;50.846;4.442;2022-08-19T06:07:37;22.77;;;9.63;;
43893;SDS011;29556;50.846;4.442;2022-08-19T06:10:04;22.95;;;9.93;;
43893;SDS011;29556;50.846;4.442;2022-08-19T06:12:34;14.07;;;8.43;;
43893;SDS011;29556;50.846;4.442;2022-08-19T06:15:02;19.70;;;9.32;;
43893;SDS011;29556;50.846;4.442;2022-08-19T06:17:31;12.65;;;7.70;;
43893;SDS011;29556;50.846;4.442;2022-08-19T06:20:01;20.15;;;8.02;;
43893;SDS011;29556;50.846;4.442;2022-08-19T06:22:35;17.50;;;8.48;;
43893;SDS011;29556;50.846;4.442;2022-08-19T06:25:03;17.27;;;7.53;;
43893;SDS011;29556;50.846;4.442;2022-08-19T06:27:29;14.02;;;7.25;;
43893;SDS011;29556;50.846;4.442;2022-08-19T06:29:58;14.48;;;6.47;;
43893;SDS011;29556;50.846;4.442;2022-08-19T06:32:24;13.73;;;7.65;;
43893;SDS011;29556;50.846;4.442;2022-08-19T06:34:51;15.05;;;6.28;;
43893;SDS011;29556;50.846;4.442;2022-08-19T06:37:16;11.65;;;6.10;;
43893;SDS011;29556;50.846;4.442;2022-08-19T06:39:43;15.93;;;6.32;;
43893;SDS011;29556;50.846;4.442;2022-08-19T06:42:12;12.77;;;5.38;;
43893;SDS011;29556;50.846;4.442;2022-08-19T06:44:47;18.98;;;5.75;;
43893;SDS011;29556;50.846;4.442;2022-08-19T06:47:15;8.68;;;4.93;;
43893;SDS011;29556;50.846;4.442;2022-08-19T06:49:44;10.45;;;5.05;;
43893;SDS011;29556;50.846;4.442;2022-08-19T06:52:18;13.65;;;4.65;;
43893;SDS011;29556;50.846;4.442;2022-08-19T06:54:44;11.75;;;5.38;;
43893;SDS011;29556;50.846;4.442;2022-08-19T06:57:14;12.15;;;4.80;;
43893;SDS011;29556;50.846;4.442;2022-08-19T06:59:44;12.15;;;4.53;;
43893;SDS011;29556;50.846;4.442;2022-08-19T07:02:11;13.25;;;4.82;;
43893;SDS011;29556;50.846;4.442;2022-08-19T07:04:38;11.10;;;4.65;;
43893;SDS011;29556;50.846;4.442;2022-08-19T07:07:06;10.27;;;4.88;;
43893;SDS011;29556;50.846;4.442;2022-08-19T07:09:36;7.85;;;4.32;;
43893;SDS011;29556;50.846;4.442;2022-08-19T07:12:06;13.30;;;4.68;;
43893;SDS011;29556;50.846;4.442;2022-08-19T07:14:37;9.05;;;4.47;;
43893;SDS011;29556;50.846;4.442;2022-08-19T07:17:05;7.40;;;4.00;;
43893;SDS011;29556;50.846;4.442;2022-08-19T07:19:34;10.48;;;4.72;;
43893;SDS011;29556;50.846;4.442;2022-08-19T07:22:02;10.00;;;4.93;;
43893;SDS011;29556;50.846;4.442;2022-08-19T07:24:30;13.13;;;4.15;;
43893;SDS011;29556;50.846;4.442;2022-08-19T07:26:57;15.32;;;5.05;;
43893;SDS011;29556;50.846;4.442;2022-08-19T07:29:31;12.02;;;4.40;;
43893;SDS011;29556;50.846;4.442;2022-08-19T07:34:31;11.70;;;5.25;;
43893;SDS011;29556;50.846;4.442;2022-08-19T07:39:30;7.65;;;4.55;;
43893;SDS011;29556;50.846;4.442;2022-08-19T07:42:00;9.77;;;4.80;;
43893;SDS011;29556;50.846;4.442;2022-08-19T07:44:30;9.48;;;4.97;;
43893;SDS011;29556;50.846;4.442;2022-08-19T07:49:25;5.13;;;3.38;;
43893;SDS011;29556;50.846;4.442;2022-08-19T07:51:59;11.07;;;4.63;;
43893;SDS011;29556;50.846;4.442;2022-08-19T07:54:34;9.70;;;3.67;;
43893;SDS011;29556;50.846;4.442;2022-08-19T07:57:02;9.57;;;3.63;;
43893;SDS011;29556;50.846;4.442;2022-08-19T07:59:33;6.75;;;3.47;;
43893;SDS011;29556;50.846;4.442;2022-08-19T08:02:00;9.75;;;3.30;;
43893;SDS011;29556;50.846;4.442;2022-08-19T08:04:34;13.85;;;3.53;;
43893;SDS011;29556;50.846;4.442;2022-08-19T08:07:35;6.53;;;3.13;;
43893;SDS011;29556;50.846;4.442;2022-08-19T08:10:20;5.20;;;3.45;;
43893;SDS011;29556;50.846;4.442;2022-08-19T08:12:46;8.80;;;3.65;;
43893;SDS011;29556;50.846;4.442;2022-08-19T08:15:13;6.70;;;3.03;;
43893;SDS011;29556;50.846;4.442;2022-08-19T08:17:41;10.55;;;3.63;;
43893;SDS011;29556;50.846;4.442;2022-08-19T08:20:14;8.45;;;4.07;;
43893;SDS011;29556;50.846;4.442;2022-08-19T08:22:44;6.55;;;3.30;;
43893;SDS011;29556;50.846;4.442;2022-08-19T08:25:30;5.97;;;3.45;;
43893;SDS011;29556;50.846;4.442;2022-08-19T08:27:56;7.10;;;3.83;;
43893;SDS011;29556;50.846;4.442;2022-08-19T08:30:25;8.27;;;2.88;;
43893;SDS011;29556;50.846;4.442;2022-08-19T08:32:56;7.65;;;3.70;;
43893;SDS011;29556;50.846;4.442;2022-08-19T08:35:29;5.03;;;2.90;;
43893;SDS011;29556;50.846;4.442;2022-08-19T08:37:58;16.25;;;4.00;;
43893;SDS011;29556;50.846;4.442;2022-08-19T08:40:52;6.88;;;3.20;;
43893;SDS011;29556;50.846;4.442;2022-08-19T08:43:30;6.93;;;3.47;;
43893;SDS011;29556;50.846;4.442;2022-08-19T08:46:05;7.65;;;2.90;;
43893;SDS011;29556;50.846;4.442;2022-08-19T08:48:43;9.40;;;3.50;;
43893;SDS011;29556;50.846;4.442;2022-08-19T08:51:22;5.65;;;2.97;;
43893;SDS011;29556;50.846;4.442;2022-08-19T08:53:54;5.28;;;3.08;;
43893;SDS011;29556;50.846;4.442;2022-08-19T08:56:21;8.32;;;2.83;;
43893;SDS011;29556;50.846;4.442;2022-08-19T09:01:22;6.22;;;2.92;;
43893;SDS011;29556;50.846;4.442;2022-08-19T09:03:50;4.40;;;3.05;;
43893;SDS011;29556;50.846;4.442;2022-08-19T09:09:21;8.75;;;2.97;;
43893;SDS011;29556;50.846;4.442;2022-08-19T09:22:50;7.03;;;3.00;;
43893;SDS011;29556;50.846;4.442;2022-08-19T09:25:17;7.50;;;3.17;;
43893;SDS011;29556;50.846;4.442;2022-08-19T09:27:51;7.18;;;2.85;;
43893;SDS011;29556;50.846;4.442;2022-08-19T09:30:30;7.78;;;3.10;;
43893;SDS011;29556;50.846;4.442;2022-08-19T09:33:03;8.00;;;2.97;;
43893;SDS011;29556;50.846;4.442;2022-08-19T09:35:33;9.70;;;2.80;;
43893;SDS011;29556;50.846;4.442;2022-08-19T09:38:01;4.10;;;2.33;;
43893;SDS011;29556;50.846;4.442;2022-08-19T09:41:11;3.97;;;2.47;;
43893;SDS011;29556;50.846;4.442;2022-08-19T09:43:40;9.88;;;2.70;;
43893;SDS011;29556;50.846;4.442;2022-08-19T09:46:11;4.47;;;2.38;;
43893;SDS011;29556;50.846;4.442;2022-08-19T09:48:50;10.38;;;3.15;;
43893;SDS011;29556;50.846;4.442;2022-08-19T09:51:21;9.40;;;2.60;;
43893;SDS011;29556;50.846;4.442;2022-08-19T09:54:04;8.15;;;3.08;;
43893;SDS011;29556;50.846;4.442;2022-08-19T09:56:32;7.60;;;2.75;;
43893;SDS011;29556;50.846;4.442;2022-08-19T09:59:08;5.70;;;3.05;;
43893;SDS011;29556;50.846;4.442;2022-08-19T10:01:51;8.18;;;2.80;;
43893;SDS011;29556;50.846;4.442;2022-08-19T10:04:19;4.82;;;2.50;;
43893;SDS011;29556;50.846;4.442;2022-08-19T10:09:17;8.07;;;2.75;;
43893;SDS011;29556;50.846;4.442;2022-08-19T10:11:48;7.28;;;2.25;;
43893;SDS011;29556;50.846;4.442;2022-08-19T10:14:16;7.43;;;2.40;;
43893;SDS011;29556;50.846;4.442;2022-08-19T10:16:47;4.25;;;2.60;;
43893;SDS011;29556;50.846;4.442;2022-08-19T10:22:07;5.40;;;2.33;;
43893;SDS011;29556;50.846;4.442;2022-08-19T10:27:30;4.57;;;2.45;;
43893;SDS011;29556;50.846;4.442;2022-08-19T10:32:44;13.85;;;2.80;;
43893;SDS011;29556;50.846;4.442;2022-08-19T10:35:24;10.10;;;2.97;;
43893;SDS011;29556;50.846;4.442;2022-08-19T10:37:55;8.55;;;2.28;;
43893;SDS011;29556;50.846;4.442;2022-08-19T10:40:36;7.95;;;2.40;;
43893;SDS011;29556;50.846;4.442;2022-08-19T10:43:08;6.82;;;2.40;;
43893;SDS011;29556;50.846;4.442;2022-08-19T10:45:35;4.18;;;2.53;;
43893;SDS011;29556;50.846;4.442;2022-08-19T10:50:39;7.65;;;3.05;;
43893;SDS011;29556;50.846;4.442;2022-08-19T10:53:36;6.03;;;2.72;;
43893;SDS011;29556;50.846;4.442;2022-08-19T10:56:01;6.28;;;2.83;;
43893;SDS011;29556;50.846;4.442;2022-08-19T10:58:51;5.38;;;3.08;;
43893;SDS011;29556;50.846;4.442;2022-08-19T11:01:29;6.10;;;3.35;;
43893;SDS011;29556;50.846;4.442;2022-08-19T11:04:10;9.68;;;3.55;;
43893;SDS011;29556;50.846;4.442;2022-08-19T11:07:05;7.18;;;3.92;;
43893;SDS011;29556;50.846;4.442;2022-08-19T11:09:46;5.45;;;3.75;;
43893;SDS011;29556;50.846;4.442;2022-08-19T11:12:19;5.78;;;4.00;;
43893;SDS011;29556;50.846;4.442;2022-08-19T11:17:18;6.63;;;3.77;;
43893;SDS011;29556;50.846;4.442;2022-08-19T11:19:52;7.65;;;3.90;;
43893;SDS011;29556;50.846;4.442;2022-08-19T11:22:20;5.30;;;3.45;;
43893;SDS011;29556;50.846;4.442;2022-08-19T11:25:02;5.03;;;3.95;;
43893;SDS011;29556;50.846;4.442;2022-08-19T11:27:33;10.15;;;4.63;;
43893;SDS011;29556;50.846;4.442;2022-08-19T11:30:12;7.65;;;3.80;;
43893;SDS011;29556;50.846;4.442;2022-08-19T11:32:40;6.03;;;3.47;;
43893;SDS011;29556;50.846;4.442;2022-08-19T11:35:19;6.15;;;3.47;;
43893;SDS011;29556;50.846;4.442;2022-08-19T11:37:51;6.40;;;3.58;;
43893;SDS011;29556;50.846;4.442;2022-08-19T11:40:17;11.43;;;4.32;;
43893;SDS011;29556;50.846;4.442;2022-08-19T11:42:49;11.07;;;5.20;;
43893;SDS011;29556;50.846;4.442;2022-08-19T11:45:25;7.80;;;4.78;;
43893;SDS011;29556;50.846;4.442;2022-08-19T11:48:01;5.72;;;4.30;;
43893;SDS011;29556;50.846;4.442;2022-08-19T11:50:27;15.07;;;4.68;;
43893;SDS011;29556;50.846;4.442;2022-08-19T11:52:57;8.50;;;4.90;;
43893;SDS011;29556;50.846;4.442;2022-08-19T11:57:52;7.97;;;5.00;;
43893;SDS011;29556;50.846;4.442;2022-08-19T12:00:20;7.20;;;5.22;;
43893;SDS011;29556;50.846;4.442;2022-08-19T12:03:20;7.63;;;4.22;;
43893;SDS011;29556;50.846;4.442;2022-08-19T12:05:46;10.57;;;5.13;;
43893;SDS011;29556;50.846;4.442;2022-08-19T12:08:15;8.70;;;4.13;;
43893;SDS011;29556;50.846;4.442;2022-08-19T12:10:43;14.57;;;4.05;;
43893;SDS011;29556;50.846;4.442;2022-08-19T12:13:17;7.85;;;3.78;;
43893;SDS011;29556;50.846;4.442;2022-08-19T12:15:52;7.22;;;3.88;;
43893;SDS011;29556;50.846;4.442;2022-08-19T12:18:20;6.07;;;3.75;;
43893;SDS011;29556;50.846;4.442;2022-08-19T12:20:47;5.00;;;2.80;;
43893;SDS011;29556;50.846;4.442;2022-08-19T12:23:16;4.88;;;3.25;;
43893;SDS011;29556;50.846;4.442;2022-08-19T12:25:44;4.95;;;3.72;;
43893;SDS011;29556;50.846;4.442;2022-08-19T12:28:17;5.13;;;3.13;;
43893;SDS011;29556;50.846;4.442;2022-08-19T12:30:48;6.57;;;3.50;;
43893;SDS011;29556;50.846;4.442;2022-08-19T12:33:18;3.80;;;2.90;;
43893;SDS011;29556;50.846;4.442;2022-08-19T12:38:17;4.78;;;2.65;;
43893;SDS011;29556;50.846;4.442;2022-08-19T12:40:47;5.47;;;2.67;;
43893;SDS011;29556;50.846;4.442;2022-08-19T12:43:14;3.45;;;1.75;;
43893;SDS011;29556;50.846;4.442;2022-08-19T12:45:44;2.38;;;2.00;;
43893;SDS011;29556;50.846;4.442;2022-08-19T12:48:13;4.88;;;1.92;;
43893;SDS011;29556;50.846;4.442;2022-08-19T12:50:42;7.05;;;1.92;;
43893;SDS011;29556;50.846;4.442;2022-08-19T12:53:24;6.40;;;2.00;;
43893;SDS011;29556;50.846;4.442;2022-08-19T12:55:57;5.00;;;1.80;;
43893;SDS011;29556;50.846;4.442;2022-08-19T13:00:55;4.35;;;2.28;;
43893;SDS011;29556;50.846;4.442;2022-08-19T13:03:22;1.88;;;1.70;;
43893;SDS011;29556;50.846;4.442;2022-08-19T13:08:25;2.55;;;1.20;;
43893;SDS011;29556;50.846;4.442;2022-08-19T13:10:51;2.70;;;1.15;;
43893;SDS011;29556;50.846;4.442;2022-08-19T13:13:19;2.55;;;1.33;;
43893;SDS011;29556;50.846;4.442;2022-08-19T13:15:46;5.30;;;1.20;;
43893;SDS011;29556;50.846;4.442;2022-08-19T13:18:14;1.55;;;1.40;;
43893;SDS011;29556;50.846;4.442;2022-08-19T13:20:39;1.23;;;0.98;;
43893;SDS011;29556;50.846;4.442;2022-08-19T13:23:06;4.30;;;1.15;;
43893;SDS011;29556;50.846;4.442;2022-08-19T13:25:32;1.73;;;1.20;;
43893;SDS011;29556;50.846;4.442;2022-08-19T13:27:59;1.25;;;1.10;;
43893;SDS011;29556;50.846;4.442;2022-08-19T13:30:25;4.18;;;1.38;;
43893;SDS011;29556;50.846;4.442;2022-08-19T13:33:10;2.45;;;1.70;;
43893;SDS011;29556;50.846;4.442;2022-08-19T13:35:50;3.70;;;1.58;;
43893;SDS011;29556;50.846;4.442;2022-08-19T13:38:22;1.60;;;1.00;;
43893;SDS011;29556;50.846;4.442;2022-08-19T13:40:49;1.10;;;1.00;;
43893;SDS011;29556;50.846;4.442;2022-08-19T13:43:20;1.95;;;1.27;;
43893;SDS011;29556;50.846;4.442;2022-08-19T13:45:55;0.95;;;0.70;;
43893;SDS011;29556;50.846;4.442;2022-08-19T13:48:21;2.78;;;0.80;;
43893;SDS011;29556;50.846;4.442;2022-08-19T13:50:48;4.32;;;1.20;;
43893;SDS011;29556;50.846;4.442;2022-08-19T13:53:14;3.45;;;0.88;;
43893;SDS011;29556;50.846;4.442;2022-08-19T13:55:42;2.30;;;0.85;;
43893;SDS011;29556;50.846;4.442;2022-08-19T13:58:11;2.65;;;0.80;;
43893;SDS011;29556;50.846;4.442;2022-08-19T14:00:41;1.55;;;0.88;;
43893;SDS011;29556;50.846;4.442;2022-08-19T14:03:09;1.20;;;1.10;;
43893;SDS011;29556;50.846;4.442;2022-08-19T14:05:35;2.88;;;0.73;;
43893;SDS011;29556;50.846;4.442;2022-08-19T14:08:03;1.83;;;0.95;;
43893;SDS011;29556;50.846;4.442;2022-08-19T14:10:29;4.53;;;0.90;;
43893;SDS011;29556;50.846;4.442;2022-08-19T14:13:13;1.17;;;0.82;;
43893;SDS011;29556;50.846;4.442;2022-08-19T14:15:40;1.25;;;0.68;;
43893;SDS011;29556;50.846;4.442;2022-08-19T14:18:06;0.88;;;0.70;;
43893;SDS011;29556;50.846;4.442;2022-08-19T14:20:36;3.20;;;1.10;;
43893;SDS011;29556;50.846;4.442;2022-08-19T14:23:03;1.53;;;1.30;;
43893;SDS011;29556;50.846;4.442;2022-08-19T14:25:31;3.00;;;1.02;;
43893;SDS011;29556;50.846;4.442;2022-08-19T14:28:00;2.45;;;0.90;;
43893;SDS011;29556;50.846;4.442;2022-08-19T14:30:38;3.38;;;1.25;;
43893;SDS011;29556;50.846;4.442;2022-08-19T14:33:04;2.15;;;1.20;;
43893;SDS011;29556;50.846;4.442;2022-08-19T14:35:35;1.58;;;1.10;;
43893;SDS011;29556;50.846;4.442;2022-08-19T14:38:26;2.03;;;1.05;;
43893;SDS011;29556;50.846;4.442;2022-08-19T14:40:53;4.03;;;1.00;;
43893;SDS011;29556;50.846;4.442;2022-08-19T14:43:20;0.73;;;0.70;;
43893;SDS011;29556;50.846;4.442;2022-08-19T14:45:48;1.05;;;0.82;;
43893;SDS011;29556;50.846;4.442;2022-08-19T14:48:17;0.32;;;0.32;;
43893;SDS011;29556;50.846;4.442;2022-08-19T14:51:05;1.30;;;0.80;;
43893;SDS011;29556;50.846;4.442;2022-08-19T14:53:32;0.57;;;0.50;;
43893;SDS011;29556;50.846;4.442;2022-08-19T14:56:08;2.67;;;0.73;;
43893;SDS011;29556;50.846;4.442;2022-08-19T15:01:27;0.50;;;0.50;;
43893;SDS011;29556;50.846;4.442;2022-08-19T15:04:20;0.52;;;0.40;;
43893;SDS011;29556;50.846;4.442;2022-08-19T15:10:15;0.50;;;0.50;;
43893;SDS011;29556;50.846;4.442;2022-08-19T15:12:46;7.47;;;0.70;;
43893;SDS011;29556;50.846;4.442;2022-08-19T15:15:14;1.33;;;0.65;;
43893;SDS011;29556;50.846;4.442;2022-08-19T15:17:57;0.30;;;0.28;;
43893;SDS011;29556;50.846;4.442;2022-08-19T15:20:29;2.78;;;0.30;;
43893;SDS011;29556;50.846;4.442;2022-08-19T15:22:57;0.77;;;0.43;;
43893;SDS011;29556;50.846;4.442;2022-08-19T15:25:43;0.52;;;0.28;;
43893;SDS011;29556;50.846;4.442;2022-08-19T15:28:24;0.88;;;0.65;;
43893;SDS011;29556;50.846;4.442;2022-08-19T15:30:54;0.75;;;0.47;;
43893;SDS011;29556;50.846;4.442;2022-08-19T15:33:21;1.27;;;0.60;;
43893;SDS011;29556;50.846;4.442;2022-08-19T15:36:04;0.60;;;0.50;;
43893;SDS011;29556;50.846;4.442;2022-08-19T15:38:43;0.80;;;0.45;;
43893;SDS011;29556;50.846;4.442;2022-08-19T15:41:16;1.52;;;0.43;;
43893;SDS011;29556;50.846;4.442;2022-08-19T15:43:53;1.05;;;0.63;;
43893;SDS011;29556;50.846;4.442;2022-08-19T15:46:50;1.95;;;0.57;;
43893;SDS011;29556;50.846;4.442;2022-08-19T15:49:20;0.85;;;0.55;;
43893;SDS011;29556;50.846;4.442;2022-08-19T15:51:51;1.60;;;0.65;;
43893;SDS011;29556;50.846;4.442;2022-08-19T15:54:22;0.93;;;0.60;;
43893;SDS011;29556;50.846;4.442;2022-08-19T15:57:09;1.42;;;0.68;;
43893;SDS011;29556;50.846;4.442;2022-08-19T16:00:07;4.10;;;0.73;;
43893;SDS011;29556;50.846;4.442;2022-08-19T16:02:57;4.55;;;0.80;;
43893;SDS011;29556;50.846;4.442;2022-08-19T16:05:41;2.67;;;0.73;;
43893;SDS011;29556;50.846;4.442;2022-08-19T16:08:33;3.53;;;0.93;;
43893;SDS011;29556;50.846;4.442;2022-08-19T16:11:34;1.00;;;0.77;;
43893;SDS011;29556;50.846;4.442;2022-08-19T17:18:46;2.90;;;2.03;;
43893;SDS011;29556;50.846;4.442;2022-08-19T17:21:24;3.13;;;1.58;;
43893;SDS011;29556;50.846;4.442;2022-08-19T17:23:57;3.10;;;1.27;;